ROMMA est une association bénévole à but non lucratif. Votre soutien est indispensable : ADHERER à ROMMA ou FAIRE un DON

Granges-lès-Beaumont - (26, Drôme)

Drôme des Collines (155 m)   Longitude: 04°58'E   Latitude: 45°03'N Station partenaire n°123
 

Détail journalier du     <<     >>

Température Precipitation Humidité Pression Vent Dir Rafale Dir. rafale Ensol.
Heure (°C) (mm) (%) (hPa) (km/h) (km/h) (min)
01:00 2.108810233NNE10NNE0
02:00 1.808910237NNE15N0
03:00 0.908910234N13NNO0
04:00 -0.208910232NE11NNE0
05:00 -0.609010222ONO6ONO0
06:00 -0.809010224NE8ENE0
07:00 -1.209010221NO6NNO0
08:00 -1.609010221ESE5ESE0
09:00 0.009110234ENE13ENE30
10:00 0.909010233E8E10
11:00 3.209010221E5E0
12:00 7.207610214E10SSO30
13:00 9.506610204SSO11OSO50
14:00 9.806510194SSO11SSO20
15:00 9.706210183SO10SO20
16:00 9.306210184SSE11E0
17:00 8.706710182ESE8ESE0
18:00 6.707710182ESE6ESE10
19:00 6.007710185ESE15E0
20:00 7.007210185SSO16S0
21:00 7.007210196S23S0
22:00 6.707410195SSE16S0
23:00 6.407510195SSE21S0
minuit 6.3074101911SSO31S0

Graphique du 08-02-2019

 

Serveur OMMA